createdAt,value
2023-02-08T00:01:14.441Z,62.50
2023-02-08T00:03:42.724Z,62.80
2023-02-08T00:06:11.590Z,61.93
2023-02-08T00:08:40.077Z,62.37
2023-02-08T00:11:10.583Z,62.91
2023-02-08T00:13:42.109Z,62.33
2023-02-08T00:16:10.295Z,62.17
2023-02-08T00:18:38.413Z,62.08
2023-02-08T00:21:09.844Z,62.46
2023-02-08T00:23:38.098Z,62.53
2023-02-08T00:26:06.781Z,61.82
2023-02-08T00:28:34.787Z,62.84
2023-02-08T00:31:04.234Z,62.98
2023-02-08T00:33:32.182Z,62.49
2023-02-08T00:36:00.849Z,62.20
2023-02-08T00:38:28.817Z,62.42
2023-02-08T00:40:56.645Z,63.05
2023-02-08T00:43:25.362Z,62.99
2023-02-08T00:45:55.487Z,63.16
2023-02-08T00:48:27.038Z,63.73
2023-02-08T00:51:02.299Z,62.62
2023-02-08T00:53:30.549Z,63.27
2023-02-08T00:55:58.765Z,63.07
2023-02-08T00:58:26.525Z,63.63
2023-02-08T01:00:54.918Z,63.63
2023-02-08T01:03:23.292Z,63.15
2023-02-08T01:05:53.814Z,64.11
2023-02-08T01:08:22.078Z,64.61
2023-02-08T01:10:50.085Z,63.86
2023-02-08T01:13:18.000Z,63.72
2023-02-08T01:15:45.806Z,63.97
2023-02-08T01:18:13.557Z,64.18
2023-02-08T01:20:42.738Z,64.49
2023-02-08T01:23:11.871Z,63.69
2023-02-08T01:25:40.243Z,63.45
2023-02-08T01:28:08.110Z,64.22
2023-02-08T01:30:35.909Z,64.01
2023-02-08T01:33:03.739Z,64.91
2023-02-08T01:35:31.480Z,64.56
2023-02-08T01:37:59.404Z,64.90
2023-02-08T01:40:28.588Z,64.85
2023-02-08T01:42:56.373Z,64.43
2023-02-08T01:45:29.947Z,64.19
2023-02-08T01:48:11.534Z,65.56
2023-02-08T01:50:53.992Z,65.80
2023-02-08T01:53:25.183Z,65.19
2023-02-08T01:55:58.327Z,65.13
2023-02-08T01:58:29.177Z,64.85
2023-02-08T02:00:57.299Z,65.48
2023-02-08T02:03:25.912Z,65.16
2023-02-08T02:05:58.648Z,65.41
2023-02-08T02:08:26.778Z,65.26
2023-02-08T02:10:56.352Z,65.54
2023-02-08T02:13:27.160Z,64.91
2023-02-08T02:15:56.149Z,64.91
2023-02-08T02:18:27.409Z,64.37
2023-02-08T02:21:21.296Z,65.15
2023-02-08T02:24:23.027Z,64.86
2023-02-08T02:27:35.287Z,64.42
2023-02-08T02:30:32.815Z,64.96
2023-02-08T02:33:31.800Z,65.51
2023-02-08T02:36:03.835Z,64.53
2023-02-08T02:38:49.563Z,64.81
2023-02-08T02:41:41.260Z,64.63
2023-02-08T02:44:24.235Z,64.75
2023-02-08T02:47:01.216Z,64.35
2023-02-08T02:49:37.856Z,63.75
2023-02-08T02:52:11.044Z,63.83
2023-02-08T02:54:43.421Z,64.10
2023-02-08T02:57:16.111Z,64.02
2023-02-08T02:59:45.305Z,64.40
2023-02-08T03:02:13.865Z,65.33
2023-02-08T03:04:55.231Z,64.84
2023-02-08T03:07:45.134Z,64.96
2023-02-08T03:10:29.974Z,64.89
2023-02-08T03:13:05.218Z,64.30
2023-02-08T03:15:47.348Z,63.27
2023-02-08T03:18:30.370Z,63.19
2023-02-08T03:21:08.240Z,63.65
2023-02-08T03:23:42.688Z,64.17
2023-02-08T03:26:17.003Z,64.02
2023-02-08T03:28:56.684Z,63.31
2023-02-08T03:31:32.053Z,62.97
2023-02-08T03:34:03.918Z,62.74
2023-02-08T03:36:37.617Z,62.06
2023-02-08T03:39:11.188Z,61.73
2023-02-08T03:41:41.706Z,61.86
2023-02-08T03:44:15.734Z,62.06
2023-02-08T03:46:49.265Z,61.61
2023-02-08T03:49:22.989Z,62.19
2023-02-08T03:51:53.954Z,61.50
2023-02-08T03:54:26.408Z,61.31
2023-02-08T03:57:02.290Z,62.41
2023-02-08T03:59:38.008Z,62.95
2023-02-08T04:02:10.647Z,63.32
2023-02-08T04:04:47.197Z,62.04
2023-02-08T04:07:17.822Z,62.30
2023-02-08T04:09:45.938Z,63.45
2023-02-08T04:12:13.765Z,62.71
2023-02-08T04:14:41.528Z,63.53
2023-02-08T04:17:09.470Z,64.11
2023-02-08T04:19:37.361Z,63.54
2023-02-08T04:22:05.122Z,62.66
2023-02-08T04:24:34.310Z,62.18
2023-02-08T04:27:03.474Z,61.74
2023-02-08T04:29:32.812Z,61.90
2023-02-08T04:32:01.045Z,61.93
2023-02-08T04:34:28.951Z,61.47
2023-02-08T04:36:56.914Z,61.13
2023-02-08T04:39:24.823Z,61.33
2023-02-08T04:41:53.988Z,61.47
2023-02-08T04:44:21.780Z,61.31
2023-02-08T04:46:49.727Z,62.28
2023-02-08T04:49:17.575Z,62.71
2023-02-08T04:51:45.476Z,62.23
2023-02-08T04:54:13.342Z,62.19
2023-02-08T04:56:41.315Z,62.65
2023-02-08T04:59:10.445Z,62.46
2023-02-08T05:01:38.287Z,62.96
2023-02-08T05:04:06.119Z,63.03
2023-02-08T05:06:34.331Z,62.23
2023-02-08T05:09:02.160Z,62.06
2023-02-08T05:11:29.980Z,61.76
2023-02-08T05:13:57.862Z,62.68
2023-02-08T05:16:27.073Z,62.96
2023-02-08T05:18:56.663Z,62.92
2023-02-08T05:21:24.816Z,62.92
2023-02-08T05:23:53.467Z,62.55
2023-02-08T05:26:21.777Z,62.69
2023-02-08T05:28:49.880Z,62.27
2023-02-08T05:31:20.834Z,62.04
2023-02-08T05:33:50.648Z,61.92
2023-02-08T05:36:19.062Z,62.81
2023-02-08T05:38:46.950Z,63.53
2023-02-08T05:41:14.790Z,63.03
2023-02-08T05:43:42.724Z,63.07
2023-02-08T05:46:10.518Z,62.78
2023-02-08T05:48:38.679Z,63.52
2023-02-08T05:51:07.906Z,63.92
2023-02-08T05:53:36.781Z,64.07
2023-02-08T05:56:04.700Z,64.45
2023-02-08T05:58:32.681Z,64.07
2023-02-08T06:01:00.454Z,64.08
2023-02-08T06:03:28.467Z,62.70
2023-02-08T06:05:56.322Z,62.92
2023-02-08T06:08:25.746Z,62.56
2023-02-08T06:10:53.479Z,63.32
2023-02-08T06:13:21.417Z,62.72
2023-02-08T06:15:49.125Z,62.38
2023-02-08T06:18:16.969Z,62.83
2023-02-08T06:20:44.735Z,63.00
2023-02-08T06:23:12.439Z,62.92
2023-02-08T06:25:41.631Z,61.99
2023-02-08T06:28:10.891Z,62.50
2023-02-08T06:30:39.170Z,63.35
2023-02-08T06:33:07.358Z,63.04
2023-02-08T06:35:35.292Z,61.89
2023-02-08T06:38:03.044Z,60.92
2023-02-08T06:40:31.321Z,60.38
2023-02-08T06:43:00.457Z,60.94
2023-02-08T06:45:28.331Z,61.35
2023-02-08T06:47:56.136Z,62.18
2023-02-08T06:50:24.270Z,62.18
2023-02-08T06:52:52.102Z,60.85
2023-02-08T06:55:19.973Z,59.59
2023-02-08T06:57:47.751Z,59.45
2023-02-08T07:00:17.542Z,59.97
2023-02-08T07:02:47.268Z,61.01
2023-02-08T07:05:15.360Z,61.13
2023-02-08T07:07:43.136Z,60.78
2023-02-08T07:10:10.989Z,60.33
2023-02-08T07:12:39.010Z,60.37
2023-02-08T07:15:07.272Z,60.34
2023-02-08T07:17:36.390Z,59.54
2023-02-08T07:20:04.500Z,60.43
2023-02-08T07:22:32.306Z,61.58
2023-02-08T07:25:00.193Z,61.83
2023-02-08T07:27:28.111Z,61.74
2023-02-08T07:29:55.883Z,61.70
2023-02-08T07:32:23.711Z,61.08
2023-02-08T07:34:54.015Z,61.59
2023-02-08T07:37:21.826Z,61.79
2023-02-08T07:39:49.776Z,61.38
2023-02-08T07:42:17.541Z,60.81
2023-02-08T07:44:55.529Z,60.45
2023-02-08T07:47:23.305Z,60.93
2023-02-08T07:49:52.520Z,60.88
2023-02-08T07:52:20.287Z,60.67
2023-02-08T07:54:48.060Z,61.37
2023-02-08T07:57:21.025Z,60.68
2023-02-08T07:59:49.359Z,60.17
2023-02-08T08:02:17.346Z,59.76
2023-02-08T08:04:45.079Z,58.99
2023-02-08T08:07:14.262Z,58.95
2023-02-08T08:09:42.039Z,58.52
2023-02-08T08:12:09.856Z,57.76
2023-02-08T08:14:37.657Z,58.05
2023-02-08T08:17:05.455Z,57.72
2023-02-08T08:19:33.229Z,56.79
2023-02-08T08:22:01.054Z,55.02
2023-02-08T08:24:31.666Z,55.37
2023-02-08T08:26:59.446Z,54.44
2023-02-08T08:29:27.217Z,55.00
2023-02-08T08:31:55.133Z,55.45
2023-02-08T08:34:29.534Z,55.13
2023-02-08T08:36:57.438Z,54.66
2023-02-08T08:39:25.700Z,55.16
2023-02-08T08:41:55.230Z,54.03
2023-02-08T08:44:23.104Z,53.18
2023-02-08T08:46:51.118Z,53.17
2023-02-08T08:49:18.849Z,51.29
2023-02-08T08:51:46.654Z,50.84
2023-02-08T08:54:14.498Z,49.79
2023-02-08T08:56:42.296Z,48.65
2023-02-08T08:59:11.564Z,48.51
2023-02-08T09:01:41.278Z,49.03
2023-02-08T09:04:09.250Z,48.26
2023-02-08T09:06:37.238Z,47.71
2023-02-08T09:09:05.534Z,47.58
2023-02-08T09:11:38.064Z,47.58
2023-02-08T09:14:06.368Z,46.79
2023-02-08T09:16:35.684Z,47.56
2023-02-08T09:19:03.888Z,46.06
2023-02-08T09:21:32.197Z,45.59
2023-02-08T09:24:00.025Z,45.57
2023-02-08T09:26:27.949Z,45.99
2023-02-08T09:28:56.676Z,44.71
2023-02-08T09:31:26.859Z,44.72
2023-02-08T09:33:57.716Z,44.52
2023-02-08T09:36:27.987Z,44.22
2023-02-08T09:39:00.282Z,43.61
2023-02-08T09:41:42.659Z,43.42
2023-02-08T09:44:21.956Z,41.48
2023-02-08T09:46:57.716Z,41.02
2023-02-08T09:49:33.182Z,40.89
2023-02-08T09:52:04.557Z,38.60
2023-02-08T09:54:36.216Z,37.98
2023-02-08T09:57:08.133Z,36.48
2023-02-08T09:59:37.399Z,36.72
2023-02-08T10:02:18.853Z,36.26
2023-02-08T10:04:57.999Z,34.46
2023-02-08T10:07:26.655Z,34.18
2023-02-08T10:09:57.460Z,32.89
2023-02-08T10:12:35.980Z,32.18
2023-02-08T10:15:15.114Z,32.06
2023-02-08T10:18:02.571Z,31.41
2023-02-08T10:20:47.251Z,32.17
2023-02-08T10:23:28.332Z,31.18
2023-02-08T10:26:14.854Z,29.92
2023-02-08T10:29:01.690Z,30.46
2023-02-08T10:31:43.737Z,28.82
2023-02-08T10:34:26.549Z,27.97
2023-02-08T10:36:56.827Z,28.28
2023-02-08T10:39:29.507Z,28.40
2023-02-08T10:41:57.424Z,28.08
2023-02-08T10:44:34.051Z,26.94
2023-02-08T10:47:13.539Z,26.63
2023-02-08T10:49:50.166Z,26.64
2023-02-08T10:52:19.836Z,26.25
2023-02-08T10:54:47.555Z,25.12
2023-02-08T10:57:19.417Z,24.03
2023-02-08T10:59:50.664Z,23.99
2023-02-08T11:02:23.970Z,23.47
2023-02-08T11:05:00.053Z,20.86
2023-02-08T11:07:29.719Z,18.99
2023-02-08T11:10:23.117Z,17.30
2023-02-08T11:12:56.719Z,16.28
2023-02-08T11:15:27.907Z,16.12
2023-02-08T11:18:00.612Z,15.75
2023-02-08T11:20:34.716Z,14.96
2023-02-08T11:23:04.206Z,15.65
2023-02-08T11:25:38.909Z,14.98
2023-02-08T11:28:22.794Z,15.90
2023-02-08T11:30:57.803Z,16.70
2023-02-08T11:33:27.342Z,16.41
2023-02-08T11:35:57.647Z,15.20
2023-02-08T11:38:28.579Z,15.77
2023-02-08T11:40:58.694Z,15.41
2023-02-08T11:43:28.421Z,16.94
2023-02-08T11:45:57.808Z,17.21
2023-02-08T11:48:30.870Z,15.47
2023-02-08T11:51:01.622Z,14.84
2023-02-08T11:53:36.625Z,13.77
2023-02-08T11:56:08.572Z,14.29
2023-02-08T11:58:36.341Z,14.82
2023-02-08T12:01:06.549Z,14.79
2023-02-08T12:03:38.593Z,13.38
2023-02-08T12:06:40.605Z,13.11
2023-02-08T12:09:18.456Z,13.03
2023-02-08T12:11:49.256Z,16.12
2023-02-08T12:14:33.507Z,16.97
2023-02-08T12:17:29.678Z,18.43
2023-02-08T12:20:15.779Z,16.27
2023-02-08T12:22:51.475Z,18.33
2023-02-08T12:25:30.385Z,19.40
2023-02-08T12:28:06.282Z,18.84
2023-02-08T12:30:37.008Z,17.53
2023-02-08T12:33:20.720Z,16.89
2023-02-08T12:36:05.283Z,17.89
2023-02-08T12:39:38.410Z,17.95
2023-02-08T12:42:22.980Z,17.85
2023-02-08T12:45:15.271Z,17.21
2023-02-08T12:48:04.515Z,19.49
2023-02-08T12:50:41.956Z,19.10
2023-02-08T12:53:21.713Z,19.30
2023-02-08T12:55:51.701Z,18.96
2023-02-08T12:58:28.291Z,19.37
2023-02-08T13:01:01.391Z,19.35
2023-02-08T13:03:39.515Z,17.51
2023-02-08T13:06:14.756Z,17.12
2023-02-08T13:08:48.767Z,17.12
2023-02-08T13:11:23.594Z,17.74
2023-02-08T13:13:58.951Z,17.39
2023-02-08T13:16:30.332Z,19.20
2023-02-08T13:19:08.301Z,18.71
2023-02-08T13:21:41.868Z,19.93
2023-02-08T13:24:22.560Z,21.36
2023-02-08T13:26:50.515Z,19.91
2023-02-08T13:29:21.474Z,20.56
2023-02-08T13:31:53.087Z,19.97
2023-02-08T13:34:29.391Z,17.45
2023-02-08T13:37:00.556Z,19.50
2023-02-08T13:39:36.057Z,19.87
2023-02-08T13:42:05.976Z,17.59
2023-02-08T13:44:38.154Z,18.10
2023-02-08T13:47:07.138Z,17.67
2023-02-08T13:49:54.982Z,16.14
2023-02-08T13:52:49.665Z,18.52
2023-02-08T13:55:44.235Z,20.74
2023-02-08T13:58:52.969Z,22.00
2023-02-08T14:01:25.289Z,22.65
2023-02-08T14:04:34.792Z,21.61
2023-02-08T14:07:08.572Z,22.53
2023-02-08T14:09:47.406Z,21.33
2023-02-08T14:12:22.416Z,18.65
2023-02-08T14:15:28.644Z,19.70
2023-02-08T14:18:00.529Z,20.10
2023-02-08T14:20:33.760Z,18.48
2023-02-08T14:23:03.865Z,19.06
2023-02-08T14:25:44.647Z,19.24
2023-02-08T14:28:26.699Z,19.40
2023-02-08T14:30:57.816Z,17.97
2023-02-08T14:33:31.235Z,17.25
2023-02-08T14:36:01.958Z,17.96
2023-02-08T14:38:50.453Z,18.71
2023-02-08T14:41:47.937Z,17.50
2023-02-08T14:44:54.160Z,16.68
2023-02-08T14:47:58.338Z,17.22
2023-02-08T14:50:31.802Z,17.59
2023-02-08T14:53:06.366Z,17.05
2023-02-08T14:55:42.163Z,17.17
2023-02-08T14:58:16.395Z,16.22
2023-02-08T15:00:45.546Z,15.97
2023-02-08T15:03:18.762Z,15.58
2023-02-08T15:06:17.491Z,14.91
2023-02-08T15:08:50.663Z,15.61
2023-02-08T15:11:25.004Z,14.80
2023-02-08T15:13:55.988Z,16.48
2023-02-08T15:16:34.505Z,15.98
2023-02-08T15:19:04.475Z,15.57
2023-02-08T15:21:36.668Z,15.38
2023-02-08T15:24:07.866Z,14.93
2023-02-08T15:26:36.007Z,14.92
2023-02-08T15:29:04.135Z,15.86
2023-02-08T15:31:34.842Z,18.23
2023-02-08T15:34:03.623Z,19.21
2023-02-08T15:36:35.221Z,20.98
2023-02-08T15:39:09.954Z,21.54
2023-02-08T15:41:38.113Z,22.78
2023-02-08T15:44:18.042Z,23.39
2023-02-08T15:46:47.321Z,23.77
2023-02-08T15:49:17.353Z,24.77
2023-02-08T15:51:48.415Z,24.51
2023-02-08T15:54:19.330Z,25.51
2023-02-08T15:56:51.392Z,25.49
2023-02-08T15:59:25.050Z,25.61
2023-02-08T16:01:54.364Z,26.32
2023-02-08T16:04:22.840Z,26.23
2023-02-08T16:06:55.028Z,26.40
2023-02-08T16:09:27.135Z,26.72
2023-02-08T16:11:57.857Z,26.03
2023-02-08T16:14:30.193Z,26.78
2023-02-08T16:16:59.561Z,25.94
2023-02-08T16:19:29.992Z,26.25
2023-02-08T16:22:25.705Z,26.20
2023-02-08T16:24:53.570Z,26.76
2023-02-08T16:27:26.368Z,27.84
2023-02-08T16:29:55.100Z,27.76
2023-02-08T16:32:30.135Z,28.34
2023-02-08T16:34:58.423Z,28.49
2023-02-08T16:37:30.951Z,28.68
2023-02-08T16:40:00.095Z,29.04
2023-02-08T16:42:31.474Z,29.70
2023-02-08T16:45:13.650Z,29.39
2023-02-08T16:47:43.470Z,29.92
2023-02-08T16:50:13.908Z,31.52
2023-02-08T16:52:43.251Z,32.01
2023-02-08T16:55:17.719Z,31.31
2023-02-08T16:57:48.066Z,31.01
2023-02-08T17:00:20.693Z,31.39
2023-02-08T17:02:48.712Z,30.84
2023-02-08T17:05:20.898Z,31.32
2023-02-08T17:07:50.412Z,32.76
2023-02-08T17:10:23.089Z,33.35
2023-02-08T17:12:50.961Z,32.81
2023-02-08T17:15:20.946Z,32.35
2023-02-08T17:17:49.074Z,33.54
2023-02-08T17:20:23.075Z,34.43
2023-02-08T17:22:53.956Z,34.61
2023-02-08T17:25:22.918Z,34.86
2023-02-08T17:27:55.305Z,36.54
2023-02-08T17:30:26.161Z,36.04
2023-02-08T17:32:56.110Z,37.38
2023-02-08T17:35:24.458Z,37.43
2023-02-08T17:37:54.223Z,36.56
2023-02-08T17:40:23.794Z,35.73
2023-02-08T17:42:53.676Z,36.59
2023-02-08T17:45:21.548Z,38.10
2023-02-08T17:47:49.670Z,36.94
2023-02-08T17:50:19.324Z,36.79
2023-02-08T17:52:48.075Z,36.21
2023-02-08T17:55:19.080Z,36.16
2023-02-08T17:57:47.580Z,36.72
2023-02-08T18:00:17.347Z,37.42
2023-02-08T18:02:46.803Z,38.33
2023-02-08T18:05:15.151Z,41.08
2023-02-08T18:07:43.096Z,39.72
2023-02-08T18:10:13.224Z,38.15
2023-02-08T18:12:43.104Z,37.97
2023-02-08T18:15:14.451Z,38.83
2023-02-08T18:17:42.715Z,41.89
2023-02-08T18:20:11.986Z,40.92
2023-02-08T18:22:40.421Z,42.41
2023-02-08T18:25:09.312Z,43.71
2023-02-08T18:27:37.331Z,41.51
2023-02-08T18:30:07.477Z,42.46
2023-02-08T18:32:35.424Z,43.93
2023-02-08T18:35:04.250Z,42.43
2023-02-08T18:37:33.112Z,41.19
2023-02-08T18:40:01.377Z,41.22
2023-02-08T18:42:29.153Z,42.55
2023-02-08T18:44:57.085Z,42.95
2023-02-08T18:47:26.271Z,42.48
2023-02-08T18:49:55.025Z,45.94
2023-02-08T18:52:24.211Z,46.27
2023-02-08T18:54:52.194Z,46.25
2023-02-08T18:57:20.061Z,45.21
2023-02-08T18:59:47.942Z,45.45
2023-02-08T19:02:20.735Z,44.67
2023-02-08T19:04:50.769Z,46.06
2023-02-08T19:07:18.807Z,48.43
2023-02-08T19:09:46.720Z,49.06
2023-02-08T19:12:15.854Z,49.35
2023-02-08T19:14:44.331Z,49.86
2023-02-08T19:17:14.771Z,48.47
2023-02-08T19:19:42.848Z,46.83
2023-02-08T19:22:12.182Z,47.05
2023-02-08T19:24:39.996Z,46.66
2023-02-08T19:27:07.953Z,47.92
2023-02-08T19:29:35.710Z,48.85
2023-02-08T19:32:03.518Z,47.86
2023-02-08T19:34:31.464Z,49.04
2023-02-08T19:36:59.191Z,50.37
2023-02-08T19:39:28.927Z,50.37
2023-02-08T19:41:58.567Z,49.44
2023-02-08T19:44:29.785Z,50.45
2023-02-08T19:46:58.328Z,50.18
2023-02-08T19:49:27.579Z,49.53
2023-02-08T19:51:55.902Z,50.94
2023-02-08T19:54:23.772Z,50.90
2023-02-08T19:56:54.690Z,51.08
2023-02-08T19:59:26.563Z,49.83
2023-02-08T20:01:55.434Z,51.32
2023-02-08T20:04:23.897Z,52.10
2023-02-08T20:06:53.769Z,53.09
2023-02-08T20:09:21.866Z,53.01
2023-02-08T20:11:57.221Z,51.88
2023-02-08T20:14:28.947Z,51.04
2023-02-08T20:16:56.802Z,52.46
2023-02-08T20:19:25.126Z,52.66
2023-02-08T20:21:53.627Z,53.99
2023-02-08T20:24:21.991Z,54.11
2023-02-08T20:26:50.238Z,53.37
2023-02-08T20:29:18.518Z,52.05
2023-02-08T20:31:51.940Z,51.79
2023-02-08T20:34:19.910Z,53.06
2023-02-08T20:37:06.998Z,53.14
2023-02-08T20:39:36.909Z,52.63
2023-02-08T20:42:05.616Z,52.05
2023-02-08T20:44:33.670Z,52.47
2023-02-08T20:47:03.239Z,53.34
2023-02-08T20:49:32.268Z,52.12
2023-02-08T20:52:00.606Z,53.03
2023-02-08T20:54:28.520Z,54.78
2023-02-08T20:56:56.582Z,53.53
2023-02-08T20:59:24.586Z,51.85
2023-02-08T21:01:52.610Z,53.15
2023-02-08T21:04:23.557Z,53.35
2023-02-08T21:06:52.696Z,52.08
2023-02-08T21:09:21.478Z,51.75
2023-02-08T21:11:50.307Z,52.03
2023-02-08T21:14:21.455Z,52.11
2023-02-08T21:16:51.305Z,52.35
2023-02-08T21:19:21.623Z,52.59
2023-02-08T21:21:52.005Z,53.55
2023-02-08T21:24:20.299Z,54.22
2023-02-08T21:26:48.478Z,55.01
2023-02-08T21:29:16.539Z,53.81
2023-02-08T21:31:45.021Z,53.29
2023-02-08T21:34:13.889Z,53.94
2023-02-08T21:36:43.258Z,55.54
2023-02-08T21:39:11.168Z,54.78
2023-02-08T21:41:39.273Z,53.80
2023-02-08T21:44:08.280Z,54.47
2023-02-08T21:46:36.743Z,53.64
2023-02-08T21:49:22.519Z,53.48
2023-02-08T21:52:09.169Z,54.74
2023-02-08T21:54:42.984Z,55.77
2023-02-08T21:57:15.081Z,57.10
2023-02-08T21:59:43.428Z,56.60
2023-02-08T22:02:14.659Z,56.56
2023-02-08T22:04:46.602Z,56.12
2023-02-08T22:07:16.056Z,56.28
2023-02-08T22:09:43.919Z,56.18
2023-02-08T22:12:15.074Z,55.97
2023-02-08T22:14:43.049Z,56.34
2023-02-08T22:17:11.429Z,56.82
2023-02-08T22:19:39.827Z,55.80
2023-02-08T22:22:07.782Z,56.64
2023-02-08T22:24:37.560Z,56.46
2023-02-08T22:27:05.621Z,57.04
2023-02-08T22:29:33.554Z,57.37
2023-02-08T22:32:02.077Z,57.18
2023-02-08T22:34:30.314Z,57.81
2023-02-08T22:36:58.104Z,57.31
2023-02-08T22:39:26.194Z,56.95
2023-02-08T22:41:55.327Z,57.40
2023-02-08T22:44:23.112Z,56.80
2023-02-08T22:46:50.911Z,57.18
2023-02-08T22:49:18.705Z,55.95
2023-02-08T22:51:46.474Z,56.73
2023-02-08T22:54:14.276Z,56.34
2023-02-08T22:56:42.043Z,56.91
2023-02-08T22:59:11.175Z,57.75
2023-02-08T23:01:39.000Z,57.37
2023-02-08T23:04:06.902Z,57.33
2023-02-08T23:06:35.576Z,57.45
2023-02-08T23:09:04.141Z,57.41
2023-02-08T23:11:32.303Z,58.03
2023-02-08T23:14:00.651Z,59.10
2023-02-08T23:16:29.876Z,58.20
2023-02-08T23:18:58.219Z,59.44
2023-02-08T23:21:25.970Z,60.05
2023-02-08T23:23:53.791Z,59.47
2023-02-08T23:26:22.656Z,60.46
2023-02-08T23:28:51.850Z,61.09
2023-02-08T23:31:20.689Z,60.13
2023-02-08T23:33:50.386Z,59.57
2023-02-08T23:36:20.555Z,59.64
2023-02-08T23:38:49.036Z,59.35
2023-02-08T23:41:18.769Z,59.00
2023-02-08T23:43:46.578Z,59.34
2023-02-08T23:46:16.992Z,58.77
2023-02-08T23:48:47.556Z,58.56
2023-02-08T23:51:17.934Z,57.93
2023-02-08T23:53:46.448Z,58.55
2023-02-08T23:56:16.739Z,59.20
2023-02-08T23:58:46.203Z,59.16
